Time;durP1;ratioP1;P1;durP2;ratioP2;P2;SDS_P1;SDS_P2;PMS_P1;PMS_P2;Temp;Humidity;BMP_temperature;BMP_pressure;BME280_temperature;BME280_humidity;BME280_pressure;Samples;Min_cycle;Max_cycle;Signal;HPM_P1;HPM_P2
2022/06/13 00:01:58;;;;;;;15.73;4.93;;;;;;;13.80;100.00;102017.28;5028539;28;20021;-45
2022/06/13 00:04:23;;;;;;;13.90;4.50;;;;;;;13.69;100.00;102014.81;5016558;28;20025;-48
2022/06/13 00:06:48;;;;;;;15.07;4.63;;;;;;;13.57;100.00;102011.50;5024147;28;20020;-47
2022/06/13 00:09:14;;;;;;;11.57;4.80;;;;;;;13.39;100.00;102006.97;5035942;28;20040;-46
2022/06/13 00:11:39;;;;;;;18.75;4.60;;;;;;;13.31;100.00;102014.06;5036184;28;20170;-48
2022/06/13 00:14:06;;;;;;;17.23;5.00;;;;;;;13.24;100.00;102014.63;5018731;28;20058;-44
2022/06/13 00:16:31;;;;;;;11.98;4.50;;;;;;;13.28;100.00;102009.81;5018642;28;20037;-45
2022/06/13 00:18:57;;;;;;;9.35;4.30;;;;;;;13.28;100.00;102006.28;5015685;28;20033;-44
2022/06/13 00:21:28;;;;;;;8.88;4.32;;;;;;;13.31;100.00;102009.53;5034474;28;20051;-46
2022/06/13 00:23:53;;;;;;;;;;;;;;;13.47;100.00;102008.03;5024702;28;20053;-48
2022/06/13 00:26:23;;;;;;;12.93;4.47;;;;;;;13.50;100.00;102010.44;5015929;28;19955;-47
2022/06/13 00:28:51;;;;;;;13.98;4.57;;;;;;;13.49;100.00;102009.56;5016920;28;20340;-46
2022/06/13 00:31:16;;;;;;;12.50;4.72;;;;;;;13.60;100.00;102011.19;5032100;28;20494;-46
2022/06/13 00:33:42;;;;;;;14.30;4.57;;;;;;;13.68;100.00;101999.69;5035568;28;20110;-46
2022/06/13 00:36:07;;;;;;;14.50;4.45;;;;;;;13.77;100.00;101998.78;5035538;28;20033;-46
2022/06/13 00:38:33;;;;;;;15.82;4.70;;;;;;;13.79;100.00;101994.09;5035435;28;20387;-45
2022/06/13 00:40:58;;;;;;;15.77;4.68;;;;;;;13.82;100.00;101998.31;5032815;28;20055;-45
2022/06/13 00:43:24;;;;;;;10.18;4.13;;;;;;;13.86;100.00;101992.47;5014768;28;20179;-50
2022/06/13 00:45:49;;;;;;;11.85;4.10;;;;;;;13.87;100.00;101993.34;5016914;28;20026;-46
2022/06/13 00:48:19;;;;;;;14.15;4.20;;;;;;;13.89;100.00;101989.47;5023006;28;20172;-44
2022/06/13 00:50:56;;;;;;;16.98;4.57;;;;;;;13.96;100.00;101987.03;5032385;28;20090;-46
2022/06/13 00:53:27;;;;;;;13.15;3.97;;;;;;;13.92;100.00;101991.03;5012214;28;20149;-49
2022/06/13 00:56:15;;;;;;;15.60;4.57;;;;;;;13.93;100.00;101985.50;5021040;28;20029;-46
2022/06/13 00:58:47;;;;;;;19.42;4.60;;;;;;;13.83;100.00;101987.41;5018925;28;20037;-45
2022/06/13 01:01:13;;;;;;;12.95;4.57;;;;;;;13.72;100.00;101985.81;5025983;28;20066;-46
2022/06/13 01:03:43;;;;;;;12.45;4.90;;;;;;;13.66;100.00;101972.16;5034827;28;20033;-48
2022/06/13 01:06:08;;;;;;;17.55;4.90;;;;;;;13.60;100.00;101974.44;5034813;28;20020;-44
2022/06/13 01:08:37;;;;;;;14.93;4.85;;;;;;;13.60;100.00;101970.94;5035115;28;20399;-45
2022/06/13 01:11:18;;;;;;;12.02;4.60;;;;;;;13.64;100.00;101974.97;5034589;28;20028;-46
2022/06/13 01:13:58;;;;;;;;;;;;;;;13.82;100.00;101980.38;5028746;28;20383;-48
2022/06/13 01:16:47;;;;;;;17.27;4.47;;;;;;;13.88;100.00;101985.09;5020163;28;19908;-51
2022/06/13 01:19:43;;;;;;;15.48;4.40;;;;;;;13.93;100.00;101988.19;5024942;28;20020;-45
2022/06/13 01:22:31;;;;;;;16.10;5.10;;;;;;;13.99;100.00;101981.34;5023124;28;20091;-45
2022/06/13 01:25:21;;;;;;;12.43;5.10;;;;;;;14.02;100.00;101993.59;5026489;28;20555;-44
2022/06/13 01:28:11;;;;;;;15.75;4.85;;;;;;;14.02;100.00;101978.34;5027718;28;20044;-44
2022/06/13 01:30:39;;;;;;;15.90;4.97;;;;;;;14.09;100.00;101992.84;5017746;28;20135;-48
2022/06/13 01:33:29;;;;;;;14.88;5.35;;;;;;;14.13;100.00;101990.69;5025385;28;20025;-46
2022/06/13 01:36:12;;;;;;;16.38;4.65;;;;;;;14.13;100.00;101983.44;5038637;28;20029;-46
2022/06/13 01:38:46;;;;;;;18.48;4.82;;;;;;;14.15;100.00;101964.50;5030736;28;20032;-45
2022/06/13 01:41:19;;;;;;;18.70;5.07;;;;;;;14.08;100.00;101969.66;5034903;28;20136;-47
2022/06/13 01:44:09;;;;;;;13.38;4.82;;;;;;;14.04;100.00;101968.28;5030053;28;20075;-48
2022/06/13 01:46:36;;;;;;;15.50;5.07;;;;;;;14.05;100.00;101971.81;5039076;28;20033;-44
2022/06/13 01:49:17;;;;;;;14.40;5.05;;;;;;;14.06;100.00;101968.97;5041221;28;20424;-48
2022/06/13 01:51:54;;;;;;;;;;;;;;;14.14;100.00;101970.88;5042057;28;20025;-46
2022/06/13 01:54:22;;;;;;;18.65;5.68;;;;;;;14.08;100.00;101975.03;5036090;28;20053;-46
2022/06/13 01:57:21;;;;;;;15.88;5.68;;;;;;;14.12;100.00;101975.53;5015357;28;20044;-46
2022/06/13 01:59:55;;;;;;;13.57;4.97;;;;;;;14.11;100.00;101980.09;5035321;28;20090;-46
2022/06/13 02:02:45;;;;;;;14.90;5.00;;;;;;;14.13;100.00;101982.63;5032526;28;20025;-45
2022/06/13 02:05:32;;;;;;;15.27;5.65;;;;;;;14.13;100.00;101972.72;5005374;28;20108;-47
2022/06/13 02:08:05;;;;;;;18.05;5.40;;;;;;;14.10;100.00;101973.03;5021331;28;20018;-44
2022/06/13 02:10:35;;;;;;;18.52;5.65;;;;;;;14.06;100.00;101977.03;5021028;28;20030;-48
2022/06/13 02:13:06;;;;;;;19.90;5.13;;;;;;;14.05;100.00;101977.19;5031717;28;20028;-46
2022/06/13 02:15:40;;;;;;;12.77;5.38;;;;;;;14.01;100.00;101990.09;5039672;28;20098;-46
2022/06/13 02:18:12;;;;;;;17.90;5.68;;;;;;;14.04;100.00;101992.47;5040846;28;20028;-46
2022/06/13 02:20:41;;;;;;;22.13;5.95;;;;;;;14.04;100.00;101983.56;5041089;28;20612;-49
2022/06/13 02:23:13;;;;;;;19.95;5.88;;;;;;;14.04;100.00;101972.81;5040428;28;20747;-49
2022/06/13 02:25:53;;;;;;;14.93;5.90;;;;;;;14.04;100.00;101967.44;5040350;28;20490;-46
2022/06/13 02:28:39;;;;;;;18.88;6.60;;;;;;;14.02;100.00;101964.06;5025303;28;20033;-47
2022/06/13 02:31:16;;;;;;;14.40;6.03;;;;;;;14.02;100.00;101970.28;5020060;28;20132;-46
2022/06/13 02:33:58;;;;;;;21.45;6.03;;;;;;;14.06;100.00;101971.66;5016577;28;20108;-50
2022/06/13 02:36:43;;;;;;;23.85;6.90;;;;;;;14.06;100.00;101970.81;5034704;28;20502;-49
2022/06/13 02:39:30;;;;;;;23.17;6.57;;;;;;;14.09;100.00;101968.66;5012538;28;20042;-45
2022/06/13 02:42:02;;;;;;;24.90;6.93;;;;;;;14.05;100.00;101971.81;5017048;28;20286;-47
2022/06/13 02:44:31;;;;;;;24.77;7.18;;;;;;;14.00;100.00;101964.22;5037540;28;20095;-45
2022/06/13 02:47:03;;;;;;;19.20;7.53;;;;;;;14.00;100.00;101969.56;5037901;28;20017;-48
2022/06/13 02:49:50;;;;;;;17.38;6.50;;;;;;;14.01;100.00;101965.91;5023274;28;20179;-47
2022/06/13 02:52:31;;;;;;;19.52;6.55;;;;;;;13.99;100.00;101962.53;5026793;28;20360;-46
2022/06/13 02:55:04;;;;;;;22.17;7.30;;;;;;;13.96;100.00;101957.47;5035885;28;20380;-47
2022/06/13 02:57:37;;;;;;;24.67;7.78;;;;;;;13.95;100.00;101962.00;5035841;28;20024;-47
2022/06/13 03:00:13;;;;;;;23.40;7.78;;;;;;;13.93;100.00;101958.66;5036193;28;20159;-48
2022/06/13 03:02:50;;;;;;;24.85;7.45;;;;;;;13.92;100.00;101962.31;5009322;28;20622;-48
2022/06/13 03:05:32;;;;;;;25.33;7.90;;;;;;;13.78;100.00;101950.28;5015899;28;20036;-46
2022/06/13 03:08:23;;;;;;;28.83;7.60;;;;;;;13.83;100.00;101962.41;5016836;28;20120;-45
2022/06/13 03:11:12;;;;;;;24.67;8.05;;;;;;;13.78;100.00;101969.09;5008486;28;20021;-48
2022/06/13 03:13:51;;;;;;;22.20;8.18;;;;;;;13.72;100.00;101966.19;5017044;28;20069;-50
2022/06/13 03:16:20;;;;;;;27.75;8.45;;;;;;;13.69;100.00;101972.69;5016916;28;20109;-47
2022/06/13 03:18:48;;;;;;;23.67;8.63;;;;;;;13.69;100.00;101978.06;5030520;28;20496;-46
2022/06/13 03:21:21;;;;;;;25.75;8.38;;;;;;;13.70;100.00;101974.38;5031532;28;20021;-48
2022/06/13 03:23:51;;;;;;;30.50;8.05;;;;;;;13.70;100.00;101965.50;5030163;28;20436;-45
2022/06/13 03:26:31;;;;;;;24.35;8.63;;;;;;;13.67;100.00;101969.31;5033524;28;20361;-44
2022/06/13 03:29:04;;;;;;;21.67;8.23;;;;;;;13.66;100.00;101964.94;5033134;28;20124;-47
2022/06/13 03:31:40;;;;;;;25.90;8.85;;;;;;;13.66;100.00;101969.47;5012164;28;20109;-47
2022/06/13 03:34:10;;;;;;;25.67;9.60;;;;;;;13.65;100.00;101967.81;5016426;28;20029;-46
2022/06/13 03:36:39;;;;;;;26.20;8.30;;;;;;;13.60;100.00;101971.78;5008898;28;20805;-48
2022/06/13 03:39:15;;;;;;;26.65;8.48;;;;;;;13.57;100.00;101985.50;5015370;28;20054;-48
2022/06/13 03:41:47;;;;;;;19.75;8.82;;;;;;;13.55;100.00;101982.13;5017000;28;20351;-47
2022/06/13 03:44:29;;;;;;;23.55;8.30;;;;;;;13.55;100.00;101992.03;5016144;28;20024;-49
2022/06/13 03:47:16;;;;;;;26.38;7.93;;;;;;;13.52;100.00;101979.75;5010428;28;20036;-47
2022/06/13 03:49:49;;;;;;;23.40;8.60;;;;;;;13.51;100.00;101987.94;5013512;28;20538;-46
2022/06/13 03:52:17;;;;;;;27.45;8.90;;;;;;;13.46;100.00;101990.25;5016374;28;20050;-47
2022/06/13 03:54:53;;;;;;;25.13;8.73;;;;;;;13.42;100.00;101995.06;5013558;28;20113;-50
2022/06/13 03:57:31;;;;;;;26.00;9.07;;;;;;;13.39;100.00;101992.69;5014205;28;20074;-48
2022/06/13 04:00:03;;;;;;;24.70;8.25;;;;;;;13.40;100.00;101999.75;5012043;28;20017;-45
2022/06/13 04:02:32;;;;;;;23.73;8.45;;;;;;;13.42;100.00;102001.31;5015382;28;20124;-45
2022/06/13 04:04:58;;;;;;;24.88;8.63;;;;;;;13.41;100.00;101996.09;5011297;28;20278;-46
2022/06/13 04:07:27;;;;;;;20.15;8.50;;;;;;;13.46;100.00;102000.97;5015083;28;20171;-49
2022/06/13 04:09:59;;;;;;;25.05;8.95;;;;;;;13.50;100.00;101999.69;5014872;28;20084;-46
2022/06/13 04:12:50;;;;;;;22.25;8.82;;;;;;;13.53;100.00;102005.59;5016247;28;20025;-48
2022/06/13 04:15:24;;;;;;;;;;;;;;;13.62;100.00;102006.50;5016899;28;20037;-45
2022/06/13 04:18:20;;;;;;;24.67;9.02;;;;;;;13.55;100.00;102000.91;5006983;28;19917;-44
2022/06/13 04:21:01;;;;;;;30.30;9.73;;;;;;;13.58;100.00;102013.19;5004070;28;20112;-47
2022/06/13 04:23:40;;;;;;;27.58;9.40;;;;;;;13.56;100.00;102007.97;5023550;28;20033;-48
2022/06/13 04:26:22;;;;;;;30.65;9.13;;;;;;;13.60;100.00;102011.19;5032215;28;20013;-48
2022/06/13 04:28:53;;;;;;;24.60;8.95;;;;;;;13.56;100.00;102020.53;5035131;28;20056;-43
2022/06/13 04:31:21;;;;;;;29.67;9.47;;;;;;;13.56;100.00;102024.09;5036207;28;20021;-44
2022/06/13 04:33:51;;;;;;;23.48;8.45;;;;;;;13.54;100.00;102015.34;5036005;28;20634;-44
2022/06/13 04:36:19;;;;;;;21.33;8.63;;;;;;;13.57;100.00;102020.38;5034438;28;20082;-44
2022/06/13 04:38:48;;;;;;;30.30;9.23;;;;;;;13.59;100.00;102022.91;5035146;28;20303;-45
2022/06/13 04:41:14;;;;;;;29.20;9.30;;;;;;;13.62;100.00;102018.09;5030561;28;20505;-45
2022/06/13 04:43:46;;;;;;;25.48;9.10;;;;;;;13.66;100.00;102015.09;5012643;28;20449;-44
2022/06/13 04:46:16;;;;;;;27.10;9.07;;;;;;;13.68;100.00;102016.66;5013414;28;20356;-49
2022/06/13 04:48:45;;;;;;;27.10;9.07;;;;;;;13.71;100.00;102013.63;5027980;28;20041;-46
2022/06/13 04:51:15;;;;;;;27.40;9.18;;;;;;;13.80;100.00;102019.97;5002729;28;20285;-47
2022/06/13 04:53:49;;;;;;;25.90;8.98;;;;;;;13.84;100.00;102023.19;5015698;28;20029;-48
2022/06/13 04:56:14;;;;;;;27.13;9.07;;;;;;;13.93;100.00;102024.91;5022080;28;20048;-48
2022/06/13 04:58:42;;;;;;;25.27;9.32;;;;;;;14.01;100.00;102030.38;5031173;28;20037;-45
2022/06/13 05:01:25;;;;;;;31.80;9.07;;;;;;;14.09;100.00;102025.06;5035085;28;20061;-45
2022/06/13 05:03:52;;;;;;;28.90;8.80;;;;;;;14.21;100.00;102027.53;5015355;28;20024;-48
2022/06/13 05:06:39;;;;;;;26.10;8.27;;;;;;;14.25;100.00;102018.97;5027235;28;20430;-45
2022/06/13 05:09:06;;;;;;;19.92;8.43;;;;;;;14.33;100.00;102026.25;5023598;28;20045;-47
2022/06/13 05:11:40;;;;;;;24.52;8.15;;;;;;;14.36;100.00;102034.84;5025688;28;20122;-46
2022/06/13 05:14:11;;;;;;;29.23;9.02;;;;;;;14.41;100.00;102039.75;5026222;28;20044;-46
2022/06/13 05:17:12;;;;;;;27.95;8.27;;;;;;;14.50;100.00;102041.50;5022781;28;20052;-45
2022/06/13 05:19:56;;;;;;;21.13;7.65;;;;;;;14.58;100.00;102045.22;5003839;28;20128;-47
2022/06/13 05:22:43;;;;;;;19.33;8.10;;;;;;;14.59;100.00;102036.22;4998370;28;20036;-50
2022/06/13 05:25:36;;;;;;;22.38;8.20;;;;;;;14.62;100.00;102041.28;5010621;28;20380;-47
2022/06/13 05:28:01;;;;;;;23.83;7.97;;;;;;;14.62;100.00;102043.97;5020808;28;20033;-46
2022/06/13 05:30:27;;;;;;;22.83;8.00;;;;;;;14.62;100.00;102052.88;5016631;28;20049;-47
2022/06/13 05:32:54;;;;;;;22.15;7.78;;;;;;;14.66;100.00;102056.06;5009206;28;20490;-45
2022/06/13 05:35:24;;;;;;;20.98;7.43;;;;;;;14.71;100.00;102057.31;5030071;28;20029;-45
2022/06/13 05:37:51;;;;;;;26.85;8.05;;;;;;;14.79;100.00;102056.50;5019439;28;20049;-46
2022/06/13 05:40:19;;;;;;;23.55;8.00;;;;;;;14.87;100.00;102066.47;5026088;28;20022;-47
2022/06/13 05:42:45;;;;;;;25.38;7.68;;;;;;;14.90;100.00;102060.75;5026300;28;20028;-47
2022/06/13 05:45:12;;;;;;;20.58;7.13;;;;;;;14.94;100.00;102075.59;5010884;28;20025;-50
2022/06/13 05:47:39;;;;;;;23.30;7.50;;;;;;;15.03;100.00;102066.53;5008591;28;20450;-46
2022/06/13 05:50:05;;;;;;;22.27;7.13;;;;;;;15.15;100.00;102069.78;5010728;28;20082;-47
2022/06/13 05:52:30;;;;;;;26.15;7.18;;;;;;;15.16;100.00;102070.66;5013586;28;20045;-45
2022/06/13 05:54:55;;;;;;;22.73;7.28;;;;;;;15.32;100.00;102080.63;5012040;28;20159;-49
2022/06/13 05:57:20;;;;;;;22.50;6.07;;;;;;;15.46;100.00;102072.78;5012255;28;20037;-50
2022/06/13 05:59:46;;;;;;;22.08;6.03;;;;;;;15.55;100.00;102075.50;5014826;28;20211;-50
2022/06/13 06:02:11;;;;;;;20.88;5.93;;;;;;;15.67;100.00;102091.19;5015211;28;20022;-49
2022/06/13 06:04:37;;;;;;;24.80;6.28;;;;;;;15.71;100.00;102091.69;5015427;28;20029;-49
2022/06/13 06:07:02;;;;;;;25.08;5.63;;;;;;;15.75;100.00;102100.28;5013749;28;20385;-47
2022/06/13 06:09:28;;;;;;;14.13;5.32;;;;;;;15.79;100.00;102107.91;5034686;28;20077;-44
2022/06/13 06:11:53;;;;;;;14.50;4.55;;;;;;;15.77;100.00;102107.25;5021690;28;20052;-46
2022/06/13 06:14:18;;;;;;;17.98;4.32;;;;;;;15.80;100.00;102106.91;5019434;28;20040;-45
2022/06/13 06:16:44;;;;;;;13.80;3.67;;;;;;;15.79;100.00;102113.31;5016677;28;20033;-46
2022/06/13 06:19:09;;;;;;;13.50;3.35;;;;;;;15.65;96.58;102122.00;5011991;28;20096;-48
2022/06/13 06:21:34;;;;;;;15.48;3.08;;;;;;;15.56;98.46;102115.72;5017825;28;20287;-46
2022/06/13 06:23:59;;;;;;;9.38;2.70;;;;;;;15.59;99.33;102118.09;5013882;28;20033;-46
2022/06/13 06:26:27;;;;;;;12.63;2.55;;;;;;;15.59;94.63;102119.94;5013843;28;20061;-49
2022/06/13 06:28:52;;;;;;;10.88;2.85;;;;;;;15.61;94.20;102123.31;5013440;28;20049;-46
2022/06/13 06:31:18;;;;;;;15.88;2.58;;;;;;;15.53;91.52;102125.97;5016923;28;20033;-43
2022/06/13 06:33:44;;;;;;;13.20;2.20;;;;;;;15.48;93.44;102124.63;5015595;28;20099;-47
2022/06/13 06:36:12;;;;;;;11.98;2.50;;;;;;;15.44;93.79;102123.28;5018998;28;20084;-48
2022/06/13 06:38:37;;;;;;;9.48;2.50;;;;;;;15.37;94.92;102134.84;5007129;28;20033;-45
2022/06/13 06:41:03;;;;;;;16.65;3.00;;;;;;;15.37;97.31;102121.38;5015634;28;20387;-44
2022/06/13 06:43:28;;;;;;;13.45;2.70;;;;;;;15.56;95.10;102131.88;5015148;28;20032;-46
2022/06/13 06:45:53;;;;;;;13.73;3.03;;;;;;;15.87;94.44;102133.19;5017039;28;20033;-48
2022/06/13 06:48:22;;;;;;;12.32;2.83;;;;;;;16.11;93.65;102152.13;5017586;28;20072;-46
2022/06/13 06:50:49;;;;;;;11.18;2.45;;;;;;;16.24;91.48;102146.22;5016941;28;20022;-43
2022/06/13 06:53:16;;;;;;;10.07;2.22;;;;;;;16.25;89.56;102147.91;5008527;28;20594;-47
2022/06/13 07:01:12;;;;;;;4.95;1.90;;;;;;;16.45;85.94;102148.44;5016392;28;20179;-44
2022/06/13 07:03:39;;;;;;;10.95;2.50;;;;;;;16.50;86.00;102146.09;5008546;28;20033;-45
2022/06/13 07:06:07;;;;;;;9.43;1.80;;;;;;;16.33;83.18;102144.41;5011847;28;20380;-47
2022/06/13 07:08:32;;;;;;;13.43;1.98;;;;;;;16.31;85.25;102154.47;5013565;28;20079;-50
2022/06/13 07:13:49;;;;;;;6.35;1.80;;;;;;;16.66;86.02;102145.22;5018023;28;20087;-46
2022/06/13 07:16:14;;;;;;;11.45;1.95;;;;;;;16.85;83.44;102144.06;5012872;28;20562;-49
2022/06/13 07:18:41;;;;;;;6.90;1.90;;;;;;;17.07;82.84;102147.88;5026552;28;20076;-45
2022/06/13 07:21:08;;;;;;;11.75;2.25;;;;;;;17.36;83.76;102151.03;5037378;28;20625;-49
2022/06/13 07:23:33;;;;;;;9.95;2.55;;;;;;;17.60;82.63;102147.38;5028925;28;20029;-46
2022/06/13 07:25:58;;;;;;;14.55;2.20;;;;;;;17.62;79.30;102151.59;5030091;28;20025;-50
2022/06/13 07:28:24;;;;;;;9.52;2.63;;;;;;;17.65;79.47;102156.66;5037060;28;20025;-49
2022/06/13 07:30:49;;;;;;;11.20;2.22;;;;;;;18.01;80.51;102153.47;5036696;28;20439;-47
2022/06/13 07:33:14;;;;;;;11.50;2.60;;;;;;;18.25;80.65;102162.44;5036525;28;20055;-46
2022/06/13 07:35:40;;;;;;;7.45;2.25;;;;;;;18.24;77.20;102160.72;5037838;28;20270;-49
2022/06/13 07:38:18;;;;;;;7.28;2.10;;;;;;;17.79;78.54;102165.06;5004562;28;20033;-45
2022/06/13 07:40:52;;;;;;;11.25;2.05;;;;;;;17.33;77.60;102160.34;4996456;28;20030;-46
2022/06/13 07:43:30;;;;;;;11.27;2.00;;;;;;;17.49;79.69;102172.94;5022415;28;20027;-46
2022/06/13 07:45:57;;;;;;;10.75;2.17;;;;;;;17.60;77.91;102163.59;5036170;28;20029;-46
2022/06/13 07:48:23;;;;;;;10.52;2.10;;;;;;;17.72;77.12;102167.63;5014197;28;20026;-46
2022/06/13 07:50:49;;;;;;;8.57;2.15;;;;;;;17.93;76.09;102169.72;5011949;28;20034;-46
2022/06/13 07:53:14;;;;;;;9.25;2.30;;;;;;;18.07;75.30;102166.28;5015515;28;20029;-47
2022/06/13 07:55:40;;;;;;;9.73;2.40;;;;;;;17.80;72.58;102181.06;5026221;28;20037;-47
2022/06/13 07:58:12;;;;;;;10.52;2.20;;;;;;;17.59;73.87;102183.53;5016052;28;20171;-46
2022/06/13 08:00:38;;;;;;;10.77;2.17;;;;;;;17.77;73.86;102186.84;5025181;28;20036;-47
2022/06/13 08:03:05;;;;;;;10.85;2.10;;;;;;;17.88;74.19;102193.75;5021571;28;20025;-47
2022/06/13 08:05:31;;;;;;;6.65;1.83;;;;;;;18.00;69.69;102189.59;5030170;28;20090;-45
2022/06/13 08:07:57;;;;;;;11.65;2.30;;;;;;;18.35;70.89;102194.66;5023579;28;20048;-47
2022/06/13 08:10:23;;;;;;;10.38;2.08;;;;;;;18.36;66.46;102189.03;5017173;28;20029;-46
2022/06/13 08:12:49;;;;;;;10.32;1.85;;;;;;;18.30;70.28;102192.47;5012217;28;20032;-45
2022/06/13 08:15:15;;;;;;;6.22;1.88;;;;;;;18.14;72.39;102201.53;5017530;28;20033;-48
2022/06/13 08:17:41;;;;;;;11.38;2.22;;;;;;;17.72;69.76;102210.84;5034741;28;20105;-46
2022/06/13 08:20:10;;;;;;;11.98;2.38;;;;;;;17.47;71.01;102210.91;5033835;28;20055;-47
2022/06/13 08:22:43;;;;;;;7.63;1.95;;;;;;;17.30;75.06;102210.13;5029342;28;20024;-48
2022/06/13 08:25:16;;;;;;;12.60;2.13;;;;;;;17.28;72.10;102211.31;5015296;28;20087;-46
2022/06/13 08:27:41;;;;;;;4.93;1.30;;;;;;;17.53;68.90;102220.16;5015451;28;20028;-49
2022/06/13 08:30:07;;;;;;;7.22;1.50;;;;;;;17.90;71.01;102210.63;5036113;28;20384;-47
2022/06/13 08:32:32;;;;;;;8.13;1.52;;;;;;;18.25;66.85;102206.53;5014028;28;20109;-49
2022/06/13 08:34:57;;;;;;;6.05;1.42;;;;;;;18.60;65.63;102217.81;5025339;28;20049;-46
2022/06/13 08:37:23;;;;;;;5.25;1.13;;;;;;;18.63;63.06;102220.16;5025423;28;20035;-45
2022/06/13 08:39:48;;;;;;;7.90;1.20;;;;;;;18.78;63.65;102219.34;5025490;28;20043;-44
2022/06/13 08:42:26;;;;;;;6.05;1.30;;;;;;;18.80;61.18;102220.88;5032646;28;20017;-46
2022/06/13 08:44:56;;;;;;;8.55;1.25;;;;;;;19.05;61.93;102220.66;5032228;28;20021;-45
2022/06/13 08:47:49;;;;;;;5.75;1.20;;;;;;;18.68;59.75;102243.94;5032052;28;20179;-44
2022/06/13 08:50:42;;;;;;;10.18;1.25;;;;;;;18.50;61.97;102228.03;5006356;28;20021;-46
2022/06/13 08:53:21;;;;;;;8.85;1.33;;;;;;;18.63;64.93;102227.41;5016730;28;20025;-47
2022/06/13 08:55:58;;;;;;;6.85;1.30;;;;;;;18.63;64.43;102228.28;5015743;28;20090;-47
2022/06/13 08:58:28;;;;;;;4.00;1.10;;;;;;;18.55;66.64;102231.03;5011488;28;20028;-46
2022/06/13 09:01:03;;;;;;;7.35;1.05;;;;;;;18.41;66.93;102231.78;5014575;28;20430;-46
2022/06/13 09:04:00;;;;;;;5.80;1.10;;;;;;;18.30;68.46;102245.75;5013327;28;20044;-50
2022/06/13 09:06:49;;;;;;;10.88;1.50;;;;;;;18.52;68.33;102244.91;5013214;28;20037;-45
2022/06/13 09:09:37;;;;;;;6.63;1.40;;;;;;;19.19;69.24;102252.34;5015464;28;20029;-48
2022/06/13 09:12:07;;;;;;;8.25;1.63;;;;;;;19.55;61.46;102250.78;5007979;28;20045;-47
2022/06/13 09:14:44;;;;;;;10.65;1.50;;;;;;;19.69;64.62;102249.97;5030481;28;20029;-47
2022/06/13 09:17:20;;;;;;;11.50;1.50;;;;;;;19.28;63.06;102255.81;5029478;28;20028;-49
2022/06/13 09:20:01;;;;;;;7.70;1.70;;;;;;;18.86;66.12;102254.50;5030925;28;20495;-47
2022/06/13 09:22:50;;;;;;;7.80;1.40;;;;;;;19.32;64.86;102253.59;5017907;28;20112;-47
2022/06/13 09:25:19;;;;;;;8.20;1.30;;;;;;;19.37;60.78;102259.28;5013206;28;20036;-46
2022/06/13 09:28:01;;;;;;;7.35;1.27;;;;;;;19.51;62.17;102254.91;5031034;28;20428;-48
2022/06/13 09:30:35;;;;;;;10.55;1.88;;;;;;;19.64;57.86;102260.53;5027346;28;20444;-45
2022/06/13 09:33:31;;;;;;;6.47;1.30;;;;;;;19.92;57.31;102249.03;5024349;28;20032;-47
2022/06/13 09:36:07;;;;;;;6.50;1.58;;;;;;;19.91;61.42;102266.34;5020723;28;20557;-46
2022/06/13 09:38:43;;;;;;;7.20;0.90;;;;;;;19.73;58.50;102259.38;5017908;28;20333;-48
2022/06/13 09:41:30;;;;;;;6.63;1.10;;;;;;;19.17;59.81;102261.69;5022575;28;20043;-46
2022/06/13 09:44:07;;;;;;;8.20;1.20;;;;;;;19.12;59.78;102264.09;5021688;28;20103;-45
2022/06/13 09:46:32;;;;;;;7.15;0.90;;;;;;;19.26;59.75;102273.28;5019716;28;20424;-48
2022/06/13 09:49:21;;;;;;;5.90;1.07;;;;;;;19.01;58.67;102277.03;5018464;28;20116;-46
2022/06/13 09:51:55;;;;;;;4.60;0.82;;;;;;;19.01;57.86;102274.34;5016600;28;20299;-45
2022/06/13 09:54:48;;;;;;;4.38;0.98;;;;;;;19.29;59.46;102283.75;5016675;28;20037;-47
2022/06/13 09:57:30;;;;;;;5.43;0.90;;;;;;;19.54;60.67;102268.09;5012994;28;20512;-47
2022/06/13 10:00:06;;;;;;;4.78;1.05;;;;;;;19.66;59.85;102276.59;5020242;28;20028;-50
2022/06/13 10:02:56;;;;;;;5.13;1.00;;;;;;;19.43;56.74;102276.66;5020601;28;20044;-50
2022/06/13 10:05:45;;;;;;;5.53;1.10;;;;;;;19.60;56.98;102289.00;5017339;28;20471;-45
2022/06/13 10:08:17;;;;;;;8.93;1.33;;;;;;;19.45;55.55;102291.72;5015646;28;20425;-50
2022/06/13 10:10:54;;;;;;;4.53;0.85;;;;;;;19.50;56.06;102291.16;5026624;28;20348;-50
2022/06/13 10:13:28;;;;;;;4.72;0.82;;;;;;;19.52;57.03;102292.66;5026023;28;20445;-46
2022/06/13 10:16:18;;;;;;;4.15;1.00;;;;;;;19.67;58.85;102287.25;5024196;28;20056;-45
2022/06/13 10:19:15;;;;;;;6.20;1.10;;;;;;;19.46;57.02;102281.72;5016526;28;20060;-49
2022/06/13 10:21:44;;;;;;;5.13;1.13;;;;;;;19.22;61.15;102294.47;4976331;28;20149;-50
2022/06/13 10:24:12;;;;;;;6.10;1.20;;;;;;;18.86;61.93;102303.22;5010505;28;20067;-47
2022/06/13 10:26:46;;;;;;;12.90;1.40;;;;;;;18.57;62.88;102295.78;5018502;28;20937;-48
2022/06/13 10:29:36;;;;;;;5.75;1.40;;;;;;;18.91;62.22;102281.03;5016251;28;20033;-48
2022/06/13 10:32:07;;;;;;;6.20;0.90;;;;;;;19.31;58.82;102293.34;5016719;28;20577;-48
2022/06/13 10:35:02;;;;;;;5.53;1.20;;;;;;;19.55;54.52;102283.31;5015285;28;20029;-46
2022/06/13 10:38:07;;;;;;;6.40;1.30;;;;;;;19.30;56.03;102282.72;5008285;28;20052;-49
2022/06/13 10:40:32;;;;;;;6.97;1.40;;;;;;;19.87;57.82;102276.69;5017522;28;20103;-47
2022/06/13 10:42:58;;;;;;;5.00;1.08;;;;;;;20.24;55.67;102293.88;5018155;28;20344;-45
2022/06/13 10:45:24;;;;;;;8.02;1.00;;;;;;;20.07;51.92;102290.53;5015993;28;20044;-45
2022/06/13 10:47:55;;;;;;;5.15;1.10;;;;;;;20.11;52.33;102294.56;4986147;28;20033;-44
2022/06/13 10:50:44;;;;;;;4.13;1.00;;;;;;;20.23;53.84;102286.78;5016764;28;20083;-45
2022/06/13 10:53:17;;;;;;;6.85;1.00;;;;;;;19.97;54.80;102291.84;5017107;28;20073;-49
2022/06/13 10:55:44;;;;;;;3.60;1.08;;;;;;;19.51;54.48;102290.97;5014154;28;20038;-45
2022/06/13 10:58:20;;;;;;;4.47;0.90;;;;;;;19.10;56.31;102296.78;5017576;28;20033;-49
2022/06/13 11:01:02;;;;;;;3.72;0.82;;;;;;;19.19;55.77;102301.13;5017777;28;20747;-48
2022/06/13 11:03:28;;;;;;;6.78;1.15;;;;;;;19.32;54.24;102297.75;5017751;28;20017;-50
2022/06/13 11:06:03;;;;;;;4.88;0.93;;;;;;;19.73;55.99;102299.22;5017449;28;20032;-48
2022/06/13 11:08:29;;;;;;;5.25;0.88;;;;;;;19.87;51.05;102287.53;5013534;28;20033;-46
2022/06/13 11:11:13;;;;;;;3.45;1.10;;;;;;;20.10;53.03;102300.16;5012124;28;20148;-46
2022/06/13 11:13:40;;;;;;;4.55;1.08;;;;;;;20.56;52.90;102299.88;5008032;28;20391;-45
2022/06/13 11:22:37;;;;;;;4.78;1.10;;;;;;;21.56;51.54;102303.53;5036780;28;20384;-49
2022/06/13 11:25:12;;;;;;;5.95;1.10;;;;;;;21.07;50.77;102309.81;5003918;28;20090;-48
2022/06/13 11:27:39;;;;;;;4.93;1.13;;;;;;;20.92;50.91;102306.34;5033827;28;20032;-48
2022/06/13 11:30:26;;;;;;;4.30;1.10;;;;;;;20.80;52.27;102300.56;5037138;28;20202;-48
2022/06/13 11:33:09;;;;;;;4.47;1.20;;;;;;;20.60;52.05;102303.03;5034066;28;20057;-47
2022/06/13 11:36:05;;;;;;;6.05;1.10;;;;;;;20.43;54.17;102314.13;5025175;28;20029;-46
2022/06/13 11:38:35;;;;;;;5.80;1.25;;;;;;;19.69;53.39;102309.59;5008476;28;20048;-47
2022/06/13 11:41:03;;;;;;;5.85;1.08;;;;;;;19.34;57.66;102314.66;5033314;28;20452;-49
2022/06/13 11:43:50;;;;;;;10.00;1.48;;;;;;;19.06;58.49;102311.72;5018004;28;20301;-46
2022/06/13 11:46:24;;;;;;;7.85;1.33;;;;;;;19.52;58.88;102311.63;5009043;28;20120;-45
2022/06/13 11:48:51;;;;;;;9.43;1.20;;;;;;;19.94;60.63;102306.63;5030514;28;20048;-49
2022/06/13 11:51:23;;;;;;;6.80;1.38;;;;;;;20.23;56.18;102305.78;5024827;28;20025;-50
2022/06/13 11:53:51;;;;;;;7.15;1.23;;;;;;;20.74;55.98;102306.78;5028562;28;20428;-50
2022/06/13 11:56:23;;;;;;;5.32;1.23;;;;;;;20.70;50.75;102309.03;5035268;28;20021;-47
2022/06/13 11:58:51;;;;;;;6.82;1.15;;;;;;;20.18;50.91;102320.91;5031699;28;20124;-48
2022/06/13 12:01:37;;;;;;;7.18;1.15;;;;;;;20.23;55.29;102313.03;5033548;28;20029;-50